sensor_id;sensor_type;location;lat;lon;timestamp;pressure;altitude;pressure_sealevel;temperature;humidity
46506;BME280;32220;49.808;9.968;2022-10-30T00:01:24;99308.88;;;14.57;78.04
46506;BME280;32220;49.808;9.968;2022-10-30T00:03:51;99312.78;;;14.64;78.21
46506;BME280;32220;49.808;9.968;2022-10-30T00:06:19;99294.03;;;14.53;78.18
46506;BME280;32220;49.808;9.968;2022-10-30T00:08:46;99316.41;;;14.63;77.88
46506;BME280;32220;49.808;9.968;2022-10-30T00:11:16;99307.66;;;14.61;77.95
46506;BME280;32220;49.808;9.968;2022-10-30T00:13:43;99311.53;;;14.57;78.04
46506;BME280;32220;49.808;9.968;2022-10-30T00:16:11;99307.91;;;14.58;78.04
46506;BME280;32220;49.808;9.968;2022-10-30T00:18:38;99310.69;;;14.57;78.08
46506;BME280;32220;49.808;9.968;2022-10-30T00:21:08;99304.72;;;14.53;78.22
46506;BME280;32220;49.808;9.968;2022-10-30T00:23:37;99303.84;;;14.53;78.20
46506;BME280;32220;49.808;9.968;2022-10-30T00:26:06;99300.66;;;14.48;78.12
46506;BME280;32220;49.808;9.968;2022-10-30T00:28:35;99301.75;;;14.45;78.33
46506;BME280;32220;49.808;9.968;2022-10-30T00:31:04;99300.44;;;14.38;78.44
46506;BME280;32220;49.808;9.968;2022-10-30T00:33:31;99308.44;;;14.38;78.41
46506;BME280;32220;49.808;9.968;2022-10-30T00:35:59;99305.97;;;14.35;78.53
46506;BME280;32220;49.808;9.968;2022-10-30T00:38:27;99308.03;;;14.31;78.29
46506;BME280;32220;49.808;9.968;2022-10-30T00:40:54;99305.56;;;14.28;78.89
46506;BME280;32220;49.808;9.968;2022-10-30T00:43:33;99305.66;;;14.27;79.04
46506;BME280;32220;49.808;9.968;2022-10-30T00:46:06;99307.69;;;14.23;78.92
46506;BME280;32220;49.808;9.968;2022-10-30T00:48:36;99302.59;;;14.20;79.12
46506;BME280;32220;49.808;9.968;2022-10-30T00:51:06;99291.50;;;14.14;78.88
46506;BME280;32220;49.808;9.968;2022-10-30T00:53:35;99292.25;;;14.16;79.18
46506;BME280;32220;49.808;9.968;2022-10-30T00:56:06;99291.59;;;14.12;79.53
46506;BME280;32220;49.808;9.968;2022-10-30T00:58:39;99288.34;;;14.09;79.39
46506;BME280;32220;49.808;9.968;2022-10-30T01:01:12;99287.03;;;14.01;80.13
46506;BME280;32220;49.808;9.968;2022-10-30T01:03:42;99284.56;;;13.98;79.63
46506;BME280;32220;49.808;9.968;2022-10-30T01:06:13;99274.28;;;13.94;80.03
46506;BME280;32220;49.808;9.968;2022-10-30T01:08:42;99278.94;;;13.90;79.86
46506;BME280;32220;49.808;9.968;2022-10-30T01:11:11;99277.44;;;13.86;79.62
46506;BME280;32220;49.808;9.968;2022-10-30T01:13:41;99262.13;;;13.77;79.78
46506;BME280;32220;49.808;9.968;2022-10-30T01:16:38;99273.63;;;13.78;79.83
46506;BME280;32220;49.808;9.968;2022-10-30T01:19:21;99275.63;;;13.74;79.93
46506;BME280;32220;49.808;9.968;2022-10-30T01:22:11;99272.34;;;13.71;79.77
46506;BME280;32220;49.808;9.968;2022-10-30T01:24:48;99274.34;;;13.67;79.92
46506;BME280;32220;49.808;9.968;2022-10-30T01:27:29;99272.75;;;13.64;79.70
46506;BME280;32220;49.808;9.968;2022-10-30T01:30:12;99274.66;;;13.62;79.73
46506;BME280;32220;49.808;9.968;2022-10-30T01:32:52;99269.56;;;13.59;80.10
46506;BME280;32220;49.808;9.968;2022-10-30T01:35:35;99268.06;;;13.55;79.90
46506;BME280;32220;49.808;9.968;2022-10-30T01:41:26;99258.47;;;13.53;80.06
46506;BME280;32220;49.808;9.968;2022-10-30T01:43:57;99267.41;;;13.52;80.05
46506;BME280;32220;49.808;9.968;2022-10-30T01:46:37;99262.19;;;13.50;80.12
46506;BME280;32220;49.808;9.968;2022-10-30T01:49:20;99263.13;;;13.49;80.19
46506;BME280;32220;49.808;9.968;2022-10-30T01:51:58;99261.44;;;13.48;80.06
46506;BME280;32220;49.808;9.968;2022-10-30T01:54:36;99264.94;;;13.49;79.86
46506;BME280;32220;49.808;9.968;2022-10-30T01:57:11;99264.94;;;13.49;79.99
46506;BME280;32220;49.808;9.968;2022-10-30T01:59:46;99263.78;;;13.53;80.09
46506;BME280;32220;49.808;9.968;2022-10-30T02:02:15;99260.19;;;13.54;79.99
46506;BME280;32220;49.808;9.968;2022-10-30T02:04:43;99269.78;;;13.56;80.04
46506;BME280;32220;49.808;9.968;2022-10-30T02:07:12;99265.31;;;13.57;79.58
46506;BME280;32220;49.808;9.968;2022-10-30T02:09:45;99266.25;;;13.56;79.64
46506;BME280;32220;49.808;9.968;2022-10-30T02:12:14;99246.31;;;13.49;80.19
46506;BME280;32220;49.808;9.968;2022-10-30T02:14:45;99258.47;;;13.53;80.36
46506;BME280;32220;49.808;9.968;2022-10-30T02:17:15;99254.19;;;13.50;80.42
46506;BME280;32220;49.808;9.968;2022-10-30T02:19:44;99260.47;;;13.49;80.09
46506;BME280;32220;49.808;9.968;2022-10-30T02:22:13;99266.88;;;13.47;80.13
46506;BME280;32220;49.808;9.968;2022-10-30T02:24:43;99256.34;;;13.45;80.26
46506;BME280;32220;49.808;9.968;2022-10-30T02:27:11;99253.78;;;13.44;80.62
46506;BME280;32220;49.808;9.968;2022-10-30T02:29:40;99258.34;;;13.42;80.35
46506;BME280;32220;49.808;9.968;2022-10-30T02:32:07;99246.97;;;13.40;81.05
46506;BME280;32220;49.808;9.968;2022-10-30T02:34:35;99244.50;;;13.37;80.96
46506;BME280;32220;49.808;9.968;2022-10-30T02:37:03;99246.22;;;13.38;81.24
46506;BME280;32220;49.808;9.968;2022-10-30T02:39:32;99237.47;;;13.36;81.22
46506;BME280;32220;49.808;9.968;2022-10-30T02:42:00;99244.63;;;13.35;81.05
46506;BME280;32220;49.808;9.968;2022-10-30T08:40:52;99315.06;;;13.94;100.00
46506;BME280;32220;49.808;9.968;2022-10-30T08:43:20;99304.28;;;14.34;100.00
46506;BME280;32220;49.808;9.968;2022-10-30T08:45:50;99313.16;;;14.84;99.52
46506;BME280;32220;49.808;9.968;2022-10-30T08:48:20;99321.16;;;15.20;95.55
46506;BME280;32220;49.808;9.968;2022-10-30T08:50:49;99308.16;;;15.51;92.48
46506;BME280;32220;49.808;9.968;2022-10-30T08:53:25;99312.19;;;15.80;90.12
46506;BME280;32220;49.808;9.968;2022-10-30T08:55:55;99312.69;;;16.07;87.75
46506;BME280;32220;49.808;9.968;2022-10-30T08:58:33;99320.03;;;16.28;85.75
46506;BME280;32220;49.808;9.968;2022-10-30T09:01:01;99301.56;;;16.47;84.60
46506;BME280;32220;49.808;9.968;2022-10-30T09:03:48;99294.66;;;16.67;83.49
46506;BME280;32220;49.808;9.968;2022-10-30T09:06:34;99307.34;;;16.97;82.28
46506;BME280;32220;49.808;9.968;2022-10-30T09:09:22;99310.81;;;17.19;81.25
46506;BME280;32220;49.808;9.968;2022-10-30T09:11:54;99312.59;;;17.41;79.40
46506;BME280;32220;49.808;9.968;2022-10-30T09:14:22;99304.38;;;17.54;78.78
46506;BME280;32220;49.808;9.968;2022-10-30T09:16:50;99313.69;;;17.71;77.59
46506;BME280;32220;49.808;9.968;2022-10-30T09:19:20;99310.09;;;17.81;76.90
46506;BME280;32220;49.808;9.968;2022-10-30T09:21:49;99310.44;;;17.88;76.63
46506;BME280;32220;49.808;9.968;2022-10-30T09:24:17;99308.47;;;17.90;76.06
46506;BME280;32220;49.808;9.968;2022-10-30T09:26:48;99306.25;;;17.95;75.37
46506;BME280;32220;49.808;9.968;2022-10-30T09:29:22;99317.28;;;18.22;75.00
46506;BME280;32220;49.808;9.968;2022-10-30T09:31:59;99321.81;;;18.52;74.27
46506;BME280;32220;49.808;9.968;2022-10-30T09:34:30;99318.22;;;18.73;73.04
46506;BME280;32220;49.808;9.968;2022-10-30T09:37:05;99323.50;;;18.93;72.86
46506;BME280;32220;49.808;9.968;2022-10-30T09:39:36;99320.56;;;19.06;72.18
46506;BME280;32220;49.808;9.968;2022-10-30T09:42:22;99318.06;;;19.24;71.38
46506;BME280;32220;49.808;9.968;2022-10-30T09:45:19;99308.25;;;19.63;70.20
46506;BME280;32220;49.808;9.968;2022-10-30T09:48:02;99324.31;;;19.92;69.85
46506;BME280;32220;49.808;9.968;2022-10-30T09:50:50;99327.53;;;20.24;68.99
46506;BME280;32220;49.808;9.968;2022-10-30T09:53:29;99327.38;;;20.35;67.11
46506;BME280;32220;49.808;9.968;2022-10-30T09:56:08;99335.03;;;20.67;66.31
46506;BME280;32220;49.808;9.968;2022-10-30T09:58:46;99349.31;;;21.32;64.00
46506;BME280;32220;49.808;9.968;2022-10-30T10:01:22;99352.50;;;21.81;61.67
46506;BME280;32220;49.808;9.968;2022-10-30T10:04:05;99324.94;;;21.69;62.99
46506;BME280;32220;49.808;9.968;2022-10-30T10:06:51;99341.34;;;22.11;61.96
46506;BME280;32220;49.808;9.968;2022-10-30T10:09:41;99346.28;;;22.76;60.86
46506;BME280;32220;49.808;9.968;2022-10-30T10:12:36;99352.25;;;23.38;58.74
46506;BME280;32220;49.808;9.968;2022-10-30T10:15:10;99359.13;;;23.74;57.60
46506;BME280;32220;49.808;9.968;2022-10-30T10:17:44;99350.34;;;24.13;56.76
46506;BME280;32220;49.808;9.968;2022-10-30T10:23:46;99371.06;;;25.86;52.01
46506;BME280;32220;49.808;9.968;2022-10-30T10:26:26;99381.75;;;27.00;48.89
46506;BME280;32220;49.808;9.968;2022-10-30T10:29:09;99382.09;;;28.41;47.37
46506;BME280;32220;49.808;9.968;2022-10-30T10:31:52;99393.44;;;30.09;44.50
46506;BME280;32220;49.808;9.968;2022-10-30T10:34:35;99410.66;;;32.11;41.04
46506;BME280;32220;49.808;9.968;2022-10-30T10:37:15;99428.22;;;33.82;37.75
46506;BME280;32220;49.808;9.968;2022-10-30T10:40:01;99425.53;;;35.76;35.31
46506;BME280;32220;49.808;9.968;2022-10-30T10:42:35;99433.69;;;37.11;32.70
46506;BME280;32220;49.808;9.968;2022-10-30T10:45:16;99443.91;;;38.41;30.71
46506;BME280;32220;49.808;9.968;2022-10-30T10:48:02;99437.75;;;39.45;29.50
46506;BME280;32220;49.808;9.968;2022-10-30T10:50:42;99443.06;;;40.50;27.99
46506;BME280;32220;49.808;9.968;2022-10-30T10:53:17;99437.53;;;40.50;27.74
46506;BME280;32220;49.808;9.968;2022-10-30T10:55:49;99441.97;;;40.51;26.88
46506;BME280;32220;49.808;9.968;2022-10-30T10:58:26;99430.00;;;40.96;27.06
46506;BME280;32220;49.808;9.968;2022-10-30T11:00:56;99418.03;;;40.25;27.60
46506;BME280;32220;49.808;9.968;2022-10-30T11:03:31;99404.38;;;38.51;29.38
46506;BME280;32220;49.808;9.968;2022-10-30T11:06:17;99389.94;;;37.42;31.15
46506;BME280;32220;49.808;9.968;2022-10-30T11:08:47;99391.28;;;38.09;29.77
46506;BME280;32220;49.808;9.968;2022-10-30T11:11:15;99408.84;;;39.36;27.67
46506;BME280;32220;49.808;9.968;2022-10-30T11:13:43;99424.22;;;40.42;26.23
46506;BME280;32220;49.808;9.968;2022-10-30T11:16:20;99415.84;;;41.03;25.79
46506;BME280;32220;49.808;9.968;2022-10-30T11:18:51;99405.28;;;40.69;25.97
46506;BME280;32220;49.808;9.968;2022-10-30T11:21:22;99408.34;;;40.93;25.87
46506;BME280;32220;49.808;9.968;2022-10-30T11:23:50;99391.66;;;40.93;26.46
46506;BME280;32220;49.808;9.968;2022-10-30T11:26:30;99400.78;;;41.29;25.28
46506;BME280;32220;49.808;9.968;2022-10-30T11:29:22;99373.88;;;41.74;25.27
46506;BME280;32220;49.808;9.968;2022-10-30T11:32:26;99346.88;;;42.18;24.89
46506;BME280;32220;49.808;9.968;2022-10-30T11:38:19;99391.44;;;44.38;22.76
46506;BME280;32220;49.808;9.968;2022-10-30T11:40:50;99388.38;;;44.99;21.80
46506;BME280;32220;49.808;9.968;2022-10-30T11:43:23;99376.81;;;45.61;21.39
46506;BME280;32220;49.808;9.968;2022-10-30T11:45:52;99357.50;;;45.73;21.02
46506;BME280;32220;49.808;9.968;2022-10-30T11:48:25;99379.53;;;46.24;20.49
46506;BME280;32220;49.808;9.968;2022-10-30T11:50:57;99363.78;;;46.59;20.93
46506;BME280;32220;49.808;9.968;2022-10-30T11:53:28;99353.88;;;46.84;20.48
46506;BME280;32220;49.808;9.968;2022-10-30T11:56:00;99369.50;;;46.76;20.33
46506;BME280;32220;49.808;9.968;2022-10-30T11:58:32;99367.16;;;46.03;21.03
46506;BME280;32220;49.808;9.968;2022-10-30T12:01:05;99370.41;;;46.19;21.00
46506;BME280;32220;49.808;9.968;2022-10-30T12:03:35;99345.75;;;46.52;20.50
46506;BME280;32220;49.808;9.968;2022-10-30T12:06:07;99356.69;;;46.84;20.45
46506;BME280;32220;49.808;9.968;2022-10-30T12:08:36;99356.53;;;46.89;20.03
46506;BME280;32220;49.808;9.968;2022-10-30T12:11:04;99357.25;;;46.41;19.80
46506;BME280;32220;49.808;9.968;2022-10-30T12:13:37;99310.59;;;45.29;21.02
46506;BME280;32220;49.808;9.968;2022-10-30T12:16:14;99337.22;;;44.85;21.63
46506;BME280;32220;49.808;9.968;2022-10-30T12:18:54;99326.81;;;44.72;21.98
46506;BME280;32220;49.808;9.968;2022-10-30T12:21:24;99331.41;;;44.82;21.94
46506;BME280;32220;49.808;9.968;2022-10-30T12:23:56;99318.94;;;44.28;22.10
46506;BME280;32220;49.808;9.968;2022-10-30T12:26:27;99307.66;;;43.44;23.16
46506;BME280;32220;49.808;9.968;2022-10-30T12:28:58;99307.50;;;43.54;23.33
46506;BME280;32220;49.808;9.968;2022-10-30T12:31:34;99314.63;;;43.65;22.17
46506;BME280;32220;49.808;9.968;2022-10-30T12:34:34;99311.16;;;43.74;22.07
46506;BME280;32220;49.808;9.968;2022-10-30T12:37:08;99312.19;;;43.78;22.00
46506;BME280;32220;49.808;9.968;2022-10-30T12:39:53;99302.38;;;43.24;22.61
46506;BME280;32220;49.808;9.968;2022-10-30T12:42:24;99284.91;;;42.37;23.41
46506;BME280;32220;49.808;9.968;2022-10-30T12:45:00;99278.31;;;41.49;25.06
46506;BME280;32220;49.808;9.968;2022-10-30T12:47:37;99272.91;;;39.89;25.61
46506;BME280;32220;49.808;9.968;2022-10-30T12:50:16;99268.00;;;38.56;26.78
46506;BME280;32220;49.808;9.968;2022-10-30T12:52:45;99246.06;;;37.53;28.89
46506;BME280;32220;49.808;9.968;2022-10-30T12:55:20;99238.88;;;37.03;28.65
46506;BME280;32220;49.808;9.968;2022-10-30T12:57:57;99245.81;;;37.06;28.83
46506;BME280;32220;49.808;9.968;2022-10-30T13:00:29;99227.28;;;36.80;29.09
46506;BME280;32220;49.808;9.968;2022-10-30T13:03:10;99230.00;;;36.03;29.57
46506;BME280;32220;49.808;9.968;2022-10-30T13:05:46;99227.94;;;35.19;30.68
46506;BME280;32220;49.808;9.968;2022-10-30T13:08:20;99166.31;;;34.05;32.17
46506;BME280;32220;49.808;9.968;2022-10-30T13:10:53;99208.94;;;33.61;32.82
46506;BME280;32220;49.808;9.968;2022-10-30T13:13:29;99203.50;;;32.83;33.78
46506;BME280;32220;49.808;9.968;2022-10-30T13:16:01;99194.72;;;32.20;34.67
46506;BME280;32220;49.808;9.968;2022-10-30T13:18:30;99180.22;;;31.69;35.77
46506;BME280;32220;49.808;9.968;2022-10-30T13:21:05;99175.19;;;31.35;36.13
46506;BME280;32220;49.808;9.968;2022-10-30T13:23:41;99162.44;;;30.91;36.78
46506;BME280;32220;49.808;9.968;2022-10-30T13:26:25;99175.56;;;30.69;37.94
46506;BME280;32220;49.808;9.968;2022-10-30T13:29:03;99172.81;;;30.69;37.60
46506;BME280;32220;49.808;9.968;2022-10-30T13:31:39;99175.94;;;31.49;36.29
46506;BME280;32220;49.808;9.968;2022-10-30T13:34:25;99184.00;;;32.36;36.06
46506;BME280;32220;49.808;9.968;2022-10-30T13:37:01;99188.53;;;32.97;35.10
46506;BME280;32220;49.808;9.968;2022-10-30T13:39:37;99182.06;;;33.75;34.36
46506;BME280;32220;49.808;9.968;2022-10-30T13:42:30;99196.03;;;34.55;32.44
46506;BME280;32220;49.808;9.968;2022-10-30T13:45:20;99197.41;;;35.21;31.72
46506;BME280;32220;49.808;9.968;2022-10-30T13:47:56;99209.50;;;35.65;31.36
46506;BME280;32220;49.808;9.968;2022-10-30T13:50:37;99207.03;;;35.97;31.07
46506;BME280;32220;49.808;9.968;2022-10-30T13:53:12;99209.00;;;36.18;30.54
46506;BME280;32220;49.808;9.968;2022-10-30T13:55:42;99208.91;;;36.30;30.11
46506;BME280;32220;49.808;9.968;2022-10-30T13:58:16;99212.84;;;36.34;30.39
46506;BME280;32220;49.808;9.968;2022-10-30T14:00:56;99213.00;;;36.11;30.74
46506;BME280;32220;49.808;9.968;2022-10-30T14:03:33;99205.75;;;35.71;31.24
46506;BME280;32220;49.808;9.968;2022-10-30T14:06:11;99198.44;;;35.32;31.78
46506;BME280;32220;49.808;9.968;2022-10-30T14:08:48;99195.06;;;35.01;32.46
46506;BME280;32220;49.808;9.968;2022-10-30T14:11:19;99196.56;;;34.40;32.69
46506;BME280;32220;49.808;9.968;2022-10-30T14:13:53;99183.66;;;34.06;33.71
46506;BME280;32220;49.808;9.968;2022-10-30T14:16:33;99179.75;;;33.48;34.42
46506;BME280;32220;49.808;9.968;2022-10-30T14:19:03;99180.09;;;32.62;35.56
46506;BME280;32220;49.808;9.968;2022-10-30T14:21:40;99160.31;;;31.81;37.12
46506;BME280;32220;49.808;9.968;2022-10-30T14:24:17;99156.00;;;31.10;38.11
46506;BME280;32220;49.808;9.968;2022-10-30T14:26:49;99171.41;;;30.47;38.99
46506;BME280;32220;49.808;9.968;2022-10-30T14:32:38;99151.81;;;29.26;41.25
46506;BME280;32220;49.808;9.968;2022-10-30T14:35:31;99135.94;;;28.75;42.27
46506;BME280;32220;49.808;9.968;2022-10-30T14:38:25;99141.03;;;28.31;42.94
46506;BME280;32220;49.808;9.968;2022-10-30T14:41:07;99143.09;;;27.94;43.91
46506;BME280;32220;49.808;9.968;2022-10-30T14:43:46;99131.91;;;27.54;44.75
46506;BME280;32220;49.808;9.968;2022-10-30T14:46:25;99127.66;;;27.24;45.50
46506;BME280;32220;49.808;9.968;2022-10-30T14:49:03;99120.59;;;26.87;45.99
46506;BME280;32220;49.808;9.968;2022-10-30T14:51:39;99130.34;;;26.60;46.46
46506;BME280;32220;49.808;9.968;2022-10-30T14:54:16;99130.94;;;26.26;46.98
46506;BME280;32220;49.808;9.968;2022-10-30T14:56:50;99120.56;;;25.86;47.73
46506;BME280;32220;49.808;9.968;2022-10-30T14:59:23;99133.19;;;25.64;48.57
46506;BME280;32220;49.808;9.968;2022-10-30T15:02:01;99127.69;;;25.34;48.79
46506;BME280;32220;49.808;9.968;2022-10-30T15:04:39;99123.03;;;25.05;49.18
46506;BME280;32220;49.808;9.968;2022-10-30T15:07:18;99113.13;;;24.67;49.96
46506;BME280;32220;49.808;9.968;2022-10-30T15:09:59;99133.00;;;24.51;50.67
46506;BME280;32220;49.808;9.968;2022-10-30T15:12:59;99115.41;;;24.16;51.46
46506;BME280;32220;49.808;9.968;2022-10-30T15:15:31;99125.44;;;23.99;51.53
46506;BME280;32220;49.808;9.968;2022-10-30T15:18:06;99138.53;;;23.80;51.62
46506;BME280;32220;49.808;9.968;2022-10-30T15:20:36;99122.19;;;23.49;52.14
46506;BME280;32220;49.808;9.968;2022-10-30T15:23:08;99134.00;;;23.40;52.51
46506;BME280;32220;49.808;9.968;2022-10-30T15:25:46;99125.91;;;23.15;53.07
46506;BME280;32220;49.808;9.968;2022-10-30T15:28:17;99123.53;;;22.96;53.34
46506;BME280;32220;49.808;9.968;2022-10-30T15:30:58;99137.88;;;22.88;53.84
46506;BME280;32220;49.808;9.968;2022-10-30T15:33:28;99129.88;;;22.63;54.25
46506;BME280;32220;49.808;9.968;2022-10-30T15:35:57;99126.16;;;22.47;54.59
46506;BME280;32220;49.808;9.968;2022-10-30T15:38:25;99140.59;;;22.38;54.92
46506;BME280;32220;49.808;9.968;2022-10-30T15:40:56;99142.41;;;22.21;55.22
46506;BME280;32220;49.808;9.968;2022-10-30T15:43:28;99119.16;;;21.95;55.31
46506;BME280;32220;49.808;9.968;2022-10-30T15:45:57;99150.84;;;21.93;55.75
46506;BME280;32220;49.808;9.968;2022-10-30T15:48:28;99157.16;;;21.75;55.84
46506;BME280;32220;49.808;9.968;2022-10-30T15:51:00;99153.34;;;21.60;56.12
46506;BME280;32220;49.808;9.968;2022-10-30T15:53:34;99147.69;;;21.45;56.53
46506;BME280;32220;49.808;9.968;2022-10-30T15:56:04;99142.31;;;21.28;56.96
46506;BME280;32220;49.808;9.968;2022-10-30T15:58:34;99136.56;;;21.05;57.00
46506;BME280;32220;49.808;9.968;2022-10-30T16:01:02;99147.13;;;20.98;57.43
46506;BME280;32220;49.808;9.968;2022-10-30T16:03:31;99129.41;;;20.78;57.90
46506;BME280;32220;49.808;9.968;2022-10-30T16:06:05;99144.19;;;20.74;58.61
46506;BME280;32220;49.808;9.968;2022-10-30T16:08:42;99103.97;;;20.37;59.16
46506;BME280;32220;49.808;9.968;2022-10-30T16:11:11;99150.31;;;20.49;59.23
46506;BME280;32220;49.808;9.968;2022-10-30T16:13:42;99157.63;;;20.38;59.45
46506;BME280;32220;49.808;9.968;2022-10-30T16:16:18;99151.38;;;20.28;60.15
46506;BME280;32220;49.808;9.968;2022-10-30T16:18:48;99150.91;;;20.15;60.89
46506;BME280;32220;49.808;9.968;2022-10-30T16:21:17;99150.25;;;20.03;61.16
46506;BME280;32220;49.808;9.968;2022-10-30T16:23:48;99156.38;;;19.96;61.22
46506;BME280;32220;49.808;9.968;2022-10-30T16:26:26;99155.72;;;19.84;61.80
46506;BME280;32220;49.808;9.968;2022-10-30T16:29:00;99154.06;;;19.73;62.32
46506;BME280;32220;49.808;9.968;2022-10-30T16:31:31;99151.53;;;19.62;62.48
46506;BME280;32220;49.808;9.968;2022-10-30T16:34:03;99152.94;;;19.47;62.84
46506;BME280;32220;49.808;9.968;2022-10-30T16:36:32;99156.19;;;19.41;63.31
46506;BME280;32220;49.808;9.968;2022-10-30T16:39:00;99150.31;;;19.28;62.79
46506;BME280;32220;49.808;9.968;2022-10-30T16:41:30;99162.47;;;19.22;62.83
46506;BME280;32220;49.808;9.968;2022-10-30T16:44:13;99166.88;;;19.14;63.21
46506;BME280;32220;49.808;9.968;2022-10-30T16:46:46;99164.47;;;19.01;63.31
46506;BME280;32220;49.808;9.968;2022-10-30T16:49:18;99163.31;;;18.94;63.48
46506;BME280;32220;49.808;9.968;2022-10-30T16:51:52;99169.53;;;18.85;63.49
46506;BME280;32220;49.808;9.968;2022-10-30T16:54:24;99164.16;;;18.75;64.29
46506;BME280;32220;49.808;9.968;2022-10-30T16:56:54;99167.00;;;18.64;63.89
46506;BME280;32220;49.808;9.968;2022-10-30T16:59:32;99173.00;;;18.56;64.63
46506;BME280;32220;49.808;9.968;2022-10-30T17:02:06;99169.44;;;18.46;64.88
46506;BME280;32220;49.808;9.968;2022-10-30T17:04:44;99165.78;;;18.38;65.78
46506;BME280;32220;49.808;9.968;2022-10-30T17:07:17;99176.91;;;18.33;65.76
46506;BME280;32220;49.808;9.968;2022-10-30T17:09:47;99175.75;;;18.26;65.72
46506;BME280;32220;49.808;9.968;2022-10-30T17:12:18;99173.59;;;18.20;65.54
46506;BME280;32220;49.808;9.968;2022-10-30T17:14:52;99179.66;;;18.12;65.61
46506;BME280;32220;49.808;9.968;2022-10-30T17:17:25;99173.97;;;18.06;66.06
46506;BME280;32220;49.808;9.968;2022-10-30T17:19:58;99184.41;;;17.99;66.28
46506;BME280;32220;49.808;9.968;2022-10-30T17:22:27;99190.28;;;17.93;66.16
46506;BME280;32220;49.808;9.968;2022-10-30T17:24:58;99195.34;;;17.86;66.34
46506;BME280;32220;49.808;9.968;2022-10-30T17:27:29;99186.00;;;17.81;66.26
46506;BME280;32220;49.808;9.968;2022-10-30T17:29:57;99195.56;;;17.74;66.44
46506;BME280;32220;49.808;9.968;2022-10-30T17:32:26;99188.19;;;17.66;66.20
46506;BME280;32220;49.808;9.968;2022-10-30T17:34:59;99187.84;;;17.59;66.51
46506;BME280;32220;49.808;9.968;2022-10-30T17:37:27;99182.56;;;17.48;66.64
46506;BME280;32220;49.808;9.968;2022-10-30T17:39:55;99187.19;;;17.46;66.42
46506;BME280;32220;49.808;9.968;2022-10-30T17:42:23;99184.06;;;17.41;67.02
46506;BME280;32220;49.808;9.968;2022-10-30T17:44:51;99175.50;;;17.27;67.11
46506;BME280;32220;49.808;9.968;2022-10-30T17:47:19;99194.13;;;17.28;67.49
46506;BME280;32220;49.808;9.968;2022-10-30T17:49:47;99170.59;;;17.11;67.83
46506;BME280;32220;49.808;9.968;2022-10-30T17:52:18;99194.03;;;17.18;68.20
46506;BME280;32220;49.808;9.968;2022-10-30T17:54:46;99197.09;;;17.14;68.25
46506;BME280;32220;49.808;9.968;2022-10-30T17:57:15;99189.00;;;17.04;68.27
46506;BME280;32220;49.808;9.968;2022-10-30T17:59:43;99197.88;;;17.05;68.82
46506;BME280;32220;49.808;9.968;2022-10-30T18:02:12;99205.44;;;17.00;68.60
46506;BME280;32220;49.808;9.968;2022-10-30T18:04:40;99200.59;;;16.94;68.93
46506;BME280;32220;49.808;9.968;2022-10-30T18:07:08;99202.81;;;16.88;69.05
46506;BME280;32220;49.808;9.968;2022-10-30T18:09:38;99205.97;;;16.82;69.33
46506;BME280;32220;49.808;9.968;2022-10-30T18:12:09;99206.38;;;16.78;69.43
46506;BME280;32220;49.808;9.968;2022-10-30T18:14:37;99204.06;;;16.73;69.60
46506;BME280;32220;49.808;9.968;2022-10-30T18:17:05;99210.78;;;16.68;69.80
46506;BME280;32220;49.808;9.968;2022-10-30T18:19:33;99211.22;;;16.62;69.74
46506;BME280;32220;49.808;9.968;2022-10-30T18:22:01;99210.03;;;16.55;69.62
46506;BME280;32220;49.808;9.968;2022-10-30T18:24:28;99213.09;;;16.50;69.55
46506;BME280;32220;49.808;9.968;2022-10-30T18:26:57;99216.13;;;16.45;69.94
46506;BME280;32220;49.808;9.968;2022-10-30T18:29:25;99206.28;;;16.35;69.93
46506;BME280;32220;49.808;9.968;2022-10-30T18:31:53;99216.13;;;16.34;70.14
46506;BME280;32220;49.808;9.968;2022-10-30T18:34:21;99217.38;;;16.30;70.19
46506;BME280;32220;49.808;9.968;2022-10-30T18:36:49;99217.84;;;16.24;70.52
46506;BME280;32220;49.808;9.968;2022-10-30T18:39:16;99220.88;;;16.20;70.41
46506;BME280;32220;49.808;9.968;2022-10-30T18:41:45;99222.00;;;16.17;71.13
46506;BME280;32220;49.808;9.968;2022-10-30T18:44:16;99205.47;;;16.01;70.93
46506;BME280;32220;49.808;9.968;2022-10-30T18:46:44;99231.56;;;16.08;71.07
46506;BME280;32220;49.808;9.968;2022-10-30T18:49:12;99229.16;;;16.05;71.20
46506;BME280;32220;49.808;9.968;2022-10-30T18:51:40;99197.34;;;15.80;71.28
46506;BME280;32220;49.808;9.968;2022-10-30T18:54:12;99236.06;;;15.97;71.24
46506;BME280;32220;49.808;9.968;2022-10-30T18:56:40;99235.47;;;15.93;71.72
46506;BME280;32220;49.808;9.968;2022-10-30T18:59:08;99234.00;;;15.89;71.73
46506;BME280;32220;49.808;9.968;2022-10-30T19:01:37;99222.34;;;15.79;72.30
46506;BME280;32220;49.808;9.968;2022-10-30T19:04:08;99225.75;;;15.81;72.43
46506;BME280;32220;49.808;9.968;2022-10-30T19:06:36;99242.97;;;15.77;72.40
46506;BME280;32220;49.808;9.968;2022-10-30T19:09:03;99242.47;;;15.72;72.56
46506;BME280;32220;49.808;9.968;2022-10-30T19:11:32;99243.81;;;15.66;72.75
46506;BME280;32220;49.808;9.968;2022-10-30T19:13:59;99235.19;;;15.63;72.68
46506;BME280;32220;49.808;9.968;2022-10-30T19:16:27;99236.38;;;15.59;72.74
46506;BME280;32220;49.808;9.968;2022-10-30T19:18:56;99243.69;;;15.57;73.98
46506;BME280;32220;49.808;9.968;2022-10-30T19:21:24;99239.59;;;15.51;75.11
46506;BME280;32220;49.808;9.968;2022-10-30T19:23:53;99223.91;;;15.35;74.68
46506;BME280;32220;49.808;9.968;2022-10-30T19:26:21;99246.25;;;15.45;75.14
46506;BME280;32220;49.808;9.968;2022-10-30T19:28:48;99244.59;;;15.44;74.89
46506;BME280;32220;49.808;9.968;2022-10-30T19:31:17;99240.31;;;15.42;75.99
46506;BME280;32220;49.808;9.968;2022-10-30T19:33:45;99245.03;;;15.38;76.30
46506;BME280;32220;49.808;9.968;2022-10-30T19:36:25;99251.22;;;15.39;75.79
46506;BME280;32220;49.808;9.968;2022-10-30T19:38:53;99260.31;;;15.36;75.39
46506;BME280;32220;49.808;9.968;2022-10-30T19:41:21;99199.78;;;15.02;75.36
46506;BME280;32220;49.808;9.968;2022-10-30T19:43:49;99249.59;;;15.25;75.84